sensor_id;sensor_type;location;lat;lon;timestamp;pressure;altitude;pressure_sealevel;temperature;humidity
56400;BME280;42298;53.638;9.876;2024-03-02T00:00:50;101269.38;;;10.25;100.00
56400;BME280;42298;53.638;9.876;2024-03-02T00:03:17;101259.03;;;10.22;100.00
56400;BME280;42298;53.638;9.876;2024-03-02T00:05:42;101266.16;;;10.21;100.00
56400;BME280;42298;53.638;9.876;2024-03-02T00:08:08;101263.78;;;10.18;100.00
56400;BME280;42298;53.638;9.876;2024-03-02T00:10:38;101269.81;;;10.20;100.00
56400;BME280;42298;53.638;9.876;2024-03-02T00:13:08;101259.47;;;10.17;100.00
56400;BME280;42298;53.638;9.876;2024-03-02T00:18:05;101258.38;;;10.10;100.00
56400;BME280;42298;53.638;9.876;2024-03-02T00:20:31;101256.97;;;10.06;100.00
56400;BME280;42298;53.638;9.876;2024-03-02T00:23:04;101261.72;;;10.02;100.00
56400;BME280;42298;53.638;9.876;2024-03-02T00:25:43;101274.59;;;10.07;100.00
56400;BME280;42298;53.638;9.876;2024-03-02T00:28:34;101261.03;;;10.00;100.00
56400;BME280;42298;53.638;9.876;2024-03-02T00:31:07;101260.59;;;10.05;100.00
56400;BME280;42298;53.638;9.876;2024-03-02T00:33:35;101252.47;;;10.06;100.00
56400;BME280;42298;53.638;9.876;2024-03-02T00:36:02;101246.47;;;10.04;100.00
56400;BME280;42298;53.638;9.876;2024-03-02T00:38:29;101234.59;;;9.99;100.00
56400;BME280;42298;53.638;9.876;2024-03-02T00:40:56;101221.56;;;9.95;100.00
56400;BME280;42298;53.638;9.876;2024-03-02T00:45:54;101277.31;;;9.97;100.00
56400;BME280;42298;53.638;9.876;2024-03-02T00:48:19;101278.00;;;9.99;100.00
56400;BME280;42298;53.638;9.876;2024-03-02T00:50:45;101283.84;;;10.03;100.00
56400;BME280;42298;53.638;9.876;2024-03-02T00:53:12;101274.91;;;10.04;100.00
56400;BME280;42298;53.638;9.876;2024-03-02T00:55:37;101264.13;;;10.05;100.00
56400;BME280;42298;53.638;9.876;2024-03-02T00:58:03;101271.81;;;10.08;100.00
56400;BME280;42298;53.638;9.876;2024-03-02T01:00:28;101290.00;;;10.13;100.00
56400;BME280;42298;53.638;9.876;2024-03-02T01:02:54;101293.66;;;10.12;100.00
56400;BME280;42298;53.638;9.876;2024-03-02T01:05:19;101304.72;;;10.17;100.00
56400;BME280;42298;53.638;9.876;2024-03-02T01:07:45;101313.53;;;10.18;100.00
56400;BME280;42298;53.638;9.876;2024-03-02T01:10:10;101307.66;;;10.14;100.00
56400;BME280;42298;53.638;9.876;2024-03-02T01:12:36;101309.63;;;10.12;100.00
56400;BME280;42298;53.638;9.876;2024-03-02T01:15:01;101315.78;;;10.12;100.00
56400;BME280;42298;53.638;9.876;2024-03-02T01:17:29;101307.81;;;10.12;100.00
56400;BME280;42298;53.638;9.876;2024-03-02T01:19:54;101307.50;;;10.15;100.00
56400;BME280;42298;53.638;9.876;2024-03-02T01:22:19;101297.59;;;10.08;100.00
56400;BME280;42298;53.638;9.876;2024-03-02T01:24:50;101297.16;;;10.12;100.00
56400;BME280;42298;53.638;9.876;2024-03-02T01:27:15;101336.09;;;10.13;100.00
56400;BME280;42298;53.638;9.876;2024-03-02T01:29:40;101360.22;;;10.12;100.00
56400;BME280;42298;53.638;9.876;2024-03-02T01:32:06;101387.91;;;10.09;100.00
56400;BME280;42298;53.638;9.876;2024-03-02T01:34:31;101433.75;;;10.13;100.00
56400;BME280;42298;53.638;9.876;2024-03-02T01:36:57;101482.06;;;10.08;100.00
56400;BME280;42298;53.638;9.876;2024-03-02T01:39:22;101498.03;;;10.08;100.00
56400;BME280;42298;53.638;9.876;2024-03-02T01:41:47;101487.53;;;10.07;100.00
56400;BME280;42298;53.638;9.876;2024-03-02T01:44:13;101501.94;;;10.04;100.00
56400;BME280;42298;53.638;9.876;2024-03-02T01:46:38;101506.72;;;10.01;100.00
56400;BME280;42298;53.638;9.876;2024-03-02T01:49:03;101535.13;;;10.00;100.00
56400;BME280;42298;53.638;9.876;2024-03-02T01:51:29;101569.59;;;9.92;100.00
56400;BME280;42298;53.638;9.876;2024-03-02T01:53:55;101574.06;;;9.91;100.00
56400;BME280;42298;53.638;9.876;2024-03-02T01:56:20;101613.97;;;9.91;100.00
56400;BME280;42298;53.638;9.876;2024-03-02T01:58:45;101631.50;;;9.94;100.00
56400;BME280;42298;53.638;9.876;2024-03-02T02:01:11;101644.22;;;9.90;100.00
56400;BME280;42298;53.638;9.876;2024-03-02T02:03:36;101668.91;;;9.92;100.00
56400;BME280;42298;53.638;9.876;2024-03-02T02:06:02;101696.47;;;9.91;100.00
56400;BME280;42298;53.638;9.876;2024-03-02T02:08:27;101712.97;;;9.85;100.00
56400;BME280;42298;53.638;9.876;2024-03-02T02:10:53;101735.81;;;9.88;100.00
56400;BME280;42298;53.638;9.876;2024-03-02T02:13:18;101758.91;;;9.87;100.00
56400;BME280;42298;53.638;9.876;2024-03-02T02:15:43;101771.97;;;9.90;100.00
56400;BME280;42298;53.638;9.876;2024-03-02T02:18:08;101774.03;;;9.87;100.00
56400;BME280;42298;53.638;9.876;2024-03-02T02:20:34;101781.06;;;9.88;100.00
56400;BME280;42298;53.638;9.876;2024-03-02T02:23:00;101784.56;;;9.88;100.00
56400;BME280;42298;53.638;9.876;2024-03-02T02:25:27;101766.44;;;9.82;100.00
56400;BME280;42298;53.638;9.876;2024-03-02T02:27:53;101742.88;;;9.78;100.00
56400;BME280;42298;53.638;9.876;2024-03-02T02:30:25;101737.25;;;9.71;100.00
56400;BME280;42298;53.638;9.876;2024-03-02T02:32:51;101727.31;;;9.73;100.00
56400;BME280;42298;53.638;9.876;2024-03-02T02:35:17;101721.16;;;9.72;100.00
56400;BME280;42298;53.638;9.876;2024-03-02T02:37:43;101715.84;;;9.72;100.00
56400;BME280;42298;53.638;9.876;2024-03-02T02:40:09;101702.63;;;9.61;100.00
56400;BME280;42298;53.638;9.876;2024-03-02T02:42:35;101709.63;;;9.62;100.00
56400;BME280;42298;53.638;9.876;2024-03-02T02:45:00;101713.00;;;9.64;100.00
56400;BME280;42298;53.638;9.876;2024-03-02T02:47:26;101710.22;;;9.66;100.00
56400;BME280;42298;53.638;9.876;2024-03-02T02:49:51;101717.91;;;9.69;100.00
56400;BME280;42298;53.638;9.876;2024-03-02T02:52:16;101701.50;;;9.64;100.00
56400;BME280;42298;53.638;9.876;2024-03-02T02:54:42;101691.81;;;9.63;100.00
56400;BME280;42298;53.638;9.876;2024-03-02T02:57:08;101686.78;;;9.60;100.00
56400;BME280;42298;53.638;9.876;2024-03-02T02:59:35;101687.91;;;9.57;100.00
56400;BME280;42298;53.638;9.876;2024-03-02T03:02:01;101685.25;;;9.57;100.00
56400;BME280;42298;53.638;9.876;2024-03-02T03:04:26;101674.31;;;9.60;100.00
56400;BME280;42298;53.638;9.876;2024-03-02T03:06:51;101667.91;;;9.63;100.00
56400;BME280;42298;53.638;9.876;2024-03-02T03:09:16;101650.97;;;9.64;100.00
56400;BME280;42298;53.638;9.876;2024-03-02T03:11:42;101642.56;;;9.59;100.00
56400;BME280;42298;53.638;9.876;2024-03-02T03:14:07;101623.75;;;9.50;100.00
56400;BME280;42298;53.638;9.876;2024-03-02T03:16:32;101630.03;;;9.49;100.00
56400;BME280;42298;53.638;9.876;2024-03-02T03:18:58;101624.00;;;9.47;100.00
56400;BME280;42298;53.638;9.876;2024-03-02T03:21:23;101633.69;;;9.48;100.00
56400;BME280;42298;53.638;9.876;2024-03-02T03:23:49;101634.94;;;9.54;100.00
56400;BME280;42298;53.638;9.876;2024-03-02T03:26:14;101636.38;;;9.58;100.00
56400;BME280;42298;53.638;9.876;2024-03-02T03:28:39;101627.84;;;9.55;100.00
56400;BME280;42298;53.638;9.876;2024-03-02T03:31:04;101628.94;;;9.52;100.00
56400;BME280;42298;53.638;9.876;2024-03-02T03:33:30;101633.16;;;9.55;100.00
56400;BME280;42298;53.638;9.876;2024-03-02T03:35:55;101634.13;;;9.53;100.00
56400;BME280;42298;53.638;9.876;2024-03-02T03:38:20;101623.03;;;9.48;100.00
56400;BME280;42298;53.638;9.876;2024-03-02T03:40:45;101630.91;;;9.50;100.00
56400;BME280;42298;53.638;9.876;2024-03-02T03:43:11;101639.28;;;9.45;100.00
56400;BME280;42298;53.638;9.876;2024-03-02T03:45:36;101640.34;;;9.43;100.00
56400;BME280;42298;53.638;9.876;2024-03-02T03:48:02;101647.25;;;9.45;100.00
56400;BME280;42298;53.638;9.876;2024-03-02T03:50:28;101640.75;;;9.38;100.00
56400;BME280;42298;53.638;9.876;2024-03-02T03:52:53;101637.53;;;9.35;100.00
56400;BME280;42298;53.638;9.876;2024-03-02T03:55:18;101635.94;;;9.32;100.00
56400;BME280;42298;53.638;9.876;2024-03-02T03:57:44;101632.59;;;9.30;100.00
56400;BME280;42298;53.638;9.876;2024-03-02T04:00:09;101631.16;;;9.26;100.00
56400;BME280;42298;53.638;9.876;2024-03-02T04:02:35;101628.63;;;9.24;100.00
56400;BME280;42298;53.638;9.876;2024-03-02T04:05:01;101627.78;;;9.24;100.00
56400;BME280;42298;53.638;9.876;2024-03-02T04:07:30;101615.06;;;9.27;100.00
56400;BME280;42298;53.638;9.876;2024-03-02T04:09:55;101613.84;;;9.31;100.00
56400;BME280;42298;53.638;9.876;2024-03-02T04:12:21;101608.53;;;9.31;100.00
56400;BME280;42298;53.638;9.876;2024-03-02T04:14:46;101599.72;;;9.31;100.00
56400;BME280;42298;53.638;9.876;2024-03-02T04:17:11;101594.28;;;9.32;100.00
56400;BME280;42298;53.638;9.876;2024-03-02T04:19:37;101580.72;;;9.36;100.00
56400;BME280;42298;53.638;9.876;2024-03-02T04:22:02;101579.88;;;9.35;100.00
56400;BME280;42298;53.638;9.876;2024-03-02T04:24:28;101577.09;;;9.37;100.00
56400;BME280;42298;53.638;9.876;2024-03-02T04:26:53;101569.94;;;9.37;100.00
56400;BME280;42298;53.638;9.876;2024-03-02T04:29:18;101568.84;;;9.40;100.00
56400;BME280;42298;53.638;9.876;2024-03-02T04:31:44;101572.09;;;9.43;100.00
56400;BME280;42298;53.638;9.876;2024-03-02T04:34:09;101566.56;;;9.35;100.00
56400;BME280;42298;53.638;9.876;2024-03-02T04:36:36;101559.72;;;9.32;100.00
56400;BME280;42298;53.638;9.876;2024-03-02T04:39:01;101556.78;;;9.36;100.00
56400;BME280;42298;53.638;9.876;2024-03-02T04:41:27;101554.53;;;9.31;100.00
56400;BME280;42298;53.638;9.876;2024-03-02T04:43:52;101575.50;;;9.34;100.00
56400;BME280;42298;53.638;9.876;2024-03-02T04:46:18;101566.38;;;9.27;100.00
56400;BME280;42298;53.638;9.876;2024-03-02T04:48:43;101540.78;;;9.26;100.00
56400;BME280;42298;53.638;9.876;2024-03-02T04:51:09;101517.81;;;9.25;100.00
56400;BME280;42298;53.638;9.876;2024-03-02T04:53:35;101520.06;;;9.20;100.00
56400;BME280;42298;53.638;9.876;2024-03-02T04:56:00;101527.03;;;9.21;100.00
56400;BME280;42298;53.638;9.876;2024-03-02T04:58:44;101535.72;;;9.23;100.00
56400;BME280;42298;53.638;9.876;2024-03-02T05:01:10;101552.25;;;9.26;100.00
56400;BME280;42298;53.638;9.876;2024-03-02T05:03:35;101565.66;;;9.25;100.00
56400;BME280;42298;53.638;9.876;2024-03-02T05:06:01;101576.31;;;9.25;100.00
56400;BME280;42298;53.638;9.876;2024-03-02T05:08:26;101569.13;;;9.16;100.00
56400;BME280;42298;53.638;9.876;2024-03-02T05:10:51;101578.53;;;9.20;100.00
56400;BME280;42298;53.638;9.876;2024-03-02T05:13:17;101575.28;;;9.16;100.00
56400;BME280;42298;53.638;9.876;2024-03-02T05:15:42;101593.47;;;9.21;100.00
56400;BME280;42298;53.638;9.876;2024-03-02T05:18:08;101597.00;;;9.21;100.00
56400;BME280;42298;53.638;9.876;2024-03-02T05:20:34;101603.16;;;9.22;100.00
56400;BME280;42298;53.638;9.876;2024-03-02T05:22:59;101611.00;;;9.23;100.00
56400;BME280;42298;53.638;9.876;2024-03-02T05:25:25;101604.28;;;9.19;100.00
56400;BME280;42298;53.638;9.876;2024-03-02T05:27:50;101598.25;;;9.17;100.00
56400;BME280;42298;53.638;9.876;2024-03-02T05:30:16;101599.91;;;9.18;100.00
56400;BME280;42298;53.638;9.876;2024-03-02T05:32:41;101605.81;;;9.22;100.00
56400;BME280;42298;53.638;9.876;2024-03-02T05:35:07;101599.91;;;9.18;100.00
56400;BME280;42298;53.638;9.876;2024-03-02T05:37:33;101598.09;;;9.19;100.00
56400;BME280;42298;53.638;9.876;2024-03-02T05:39:59;101603.16;;;9.22;100.00
56400;BME280;42298;53.638;9.876;2024-03-02T05:42:24;101598.09;;;9.19;100.00
56400;BME280;42298;53.638;9.876;2024-03-02T05:44:50;101594.88;;;9.15;100.00
56400;BME280;42298;53.638;9.876;2024-03-02T05:47:15;101590.66;;;9.13;100.00
56400;BME280;42298;53.638;9.876;2024-03-02T05:49:40;101585.16;;;9.04;100.00
56400;BME280;42298;53.638;9.876;2024-03-02T05:52:06;101582.50;;;9.04;100.00
56400;BME280;42298;53.638;9.876;2024-03-02T05:54:32;101599.53;;;9.02;100.00
56400;BME280;42298;53.638;9.876;2024-03-02T05:56:57;101608.66;;;9.09;100.00
56400;BME280;42298;53.638;9.876;2024-03-02T05:59:41;101609.38;;;9.11;100.00
56400;BME280;42298;53.638;9.876;2024-03-02T06:02:06;101614.56;;;9.13;100.00
56400;BME280;42298;53.638;9.876;2024-03-02T06:04:31;101607.56;;;9.11;100.00
56400;BME280;42298;53.638;9.876;2024-03-02T06:06:56;101614.81;;;9.09;100.00
56400;BME280;42298;53.638;9.876;2024-03-02T06:09:22;101621.69;;;9.12;100.00
56400;BME280;42298;53.638;9.876;2024-03-02T06:11:49;101612.31;;;9.08;100.00
56400;BME280;42298;53.638;9.876;2024-03-02T06:14:16;101609.19;;;9.03;100.00
56400;BME280;42298;53.638;9.876;2024-03-02T06:16:41;101636.72;;;9.23;100.00
56400;BME280;42298;53.638;9.876;2024-03-02T06:19:07;101630.56;;;9.22;100.00
56400;BME280;42298;53.638;9.876;2024-03-02T06:21:32;101635.06;;;9.22;100.00
56400;BME280;42298;53.638;9.876;2024-03-02T06:23:57;101629.97;;;9.19;100.00
56400;BME280;42298;53.638;9.876;2024-03-02T06:26:23;101604.84;;;9.02;100.00
56400;BME280;42298;53.638;9.876;2024-03-02T06:28:48;101595.91;;;8.82;100.00
56400;BME280;42298;53.638;9.876;2024-03-02T06:31:14;101610.13;;;8.81;100.00
56400;BME280;42298;53.638;9.876;2024-03-02T06:33:39;101606.31;;;8.74;100.00
56400;BME280;42298;53.638;9.876;2024-03-02T06:36:07;101613.34;;;8.63;100.00
56400;BME280;42298;53.638;9.876;2024-03-02T06:38:34;101618.91;;;8.60;100.00
56400;BME280;42298;53.638;9.876;2024-03-02T06:41:00;101630.97;;;8.64;100.00
56400;BME280;42298;53.638;9.876;2024-03-02T06:43:25;101634.13;;;8.58;100.00
56400;BME280;42298;53.638;9.876;2024-03-02T06:45:51;101627.00;;;8.59;100.00
56400;BME280;42298;53.638;9.876;2024-03-02T06:48:17;101639.31;;;8.60;100.00
56400;BME280;42298;53.638;9.876;2024-03-02T06:50:46;101643.91;;;8.58;100.00
56400;BME280;42298;53.638;9.876;2024-03-02T06:53:12;101653.06;;;8.65;100.00
56400;BME280;42298;53.638;9.876;2024-03-02T06:55:37;101647.88;;;8.63;100.00
56400;BME280;42298;53.638;9.876;2024-03-02T06:58:02;101652.81;;;8.68;100.00
56400;BME280;42298;53.638;9.876;2024-03-02T07:00:28;101637.25;;;8.63;100.00
56400;BME280;42298;53.638;9.876;2024-03-02T07:02:54;101650.28;;;8.66;100.00
56400;BME280;42298;53.638;9.876;2024-03-02T07:05:19;101670.88;;;8.74;100.00
56400;BME280;42298;53.638;9.876;2024-03-02T07:07:46;101695.84;;;8.83;100.00
56400;BME280;42298;53.638;9.876;2024-03-02T07:10:11;101704.09;;;8.80;100.00
56400;BME280;42298;53.638;9.876;2024-03-02T07:12:36;101709.41;;;8.80;100.00
56400;BME280;42298;53.638;9.876;2024-03-02T07:15:03;101724.97;;;8.84;100.00
56400;BME280;42298;53.638;9.876;2024-03-02T07:17:31;101717.59;;;8.88;100.00
56400;BME280;42298;53.638;9.876;2024-03-02T07:19:57;101714.94;;;8.88;100.00
56400;BME280;42298;53.638;9.876;2024-03-02T07:22:23;101725.75;;;8.96;100.00
56400;BME280;42298;53.638;9.876;2024-03-02T07:24:49;101734.06;;;9.03;100.00
56400;BME280;42298;53.638;9.876;2024-03-02T07:27:15;101729.25;;;9.08;100.00
56400;BME280;42298;53.638;9.876;2024-03-02T07:29:41;101734.03;;;9.14;100.00
56400;BME280;42298;53.638;9.876;2024-03-02T07:32:07;101738.72;;;9.22;100.00
56400;BME280;42298;53.638;9.876;2024-03-02T07:34:33;101724.00;;;9.18;100.00
56400;BME280;42298;53.638;9.876;2024-03-02T07:36:58;101742.22;;;9.22;100.00
56400;BME280;42298;53.638;9.876;2024-03-02T07:39:24;101740.88;;;9.28;100.00
56400;BME280;42298;53.638;9.876;2024-03-02T07:41:50;101741.59;;;9.30;100.00
56400;BME280;42298;53.638;9.876;2024-03-02T07:44:16;101741.00;;;9.26;100.00
56400;BME280;42298;53.638;9.876;2024-03-02T07:46:42;101736.28;;;9.30;100.00
56400;BME280;42298;53.638;9.876;2024-03-02T07:49:08;101735.41;;;9.29;100.00
56400;BME280;42298;53.638;9.876;2024-03-02T07:51:33;101727.81;;;9.25;100.00
56400;BME280;42298;53.638;9.876;2024-03-02T07:54:00;101730.47;;;9.25;100.00
56400;BME280;42298;53.638;9.876;2024-03-02T07:56:25;101735.56;;;9.28;100.00
56400;BME280;42298;53.638;9.876;2024-03-02T07:58:51;101753.53;;;9.36;100.00
56400;BME280;42298;53.638;9.876;2024-03-02T08:01:16;101748.47;;;9.32;100.00
56400;BME280;42298;53.638;9.876;2024-03-02T08:03:42;101745.66;;;9.34;100.00
56400;BME280;42298;53.638;9.876;2024-03-02T08:06:08;101762.44;;;9.46;100.00
56400;BME280;42298;53.638;9.876;2024-03-02T08:08:33;101752.75;;;9.45;100.00
56400;BME280;42298;53.638;9.876;2024-03-02T08:10:58;101749.97;;;9.46;100.00
56400;BME280;42298;53.638;9.876;2024-03-02T08:13:24;101750.81;;;9.47;100.00
56400;BME280;42298;53.638;9.876;2024-03-02T08:15:49;101753.34;;;9.48;100.00
56400;BME280;42298;53.638;9.876;2024-03-02T08:18:15;101762.25;;;9.59;100.00
56400;BME280;42298;53.638;9.876;2024-03-02T08:20:40;101774.88;;;9.66;100.00
56400;BME280;42298;53.638;9.876;2024-03-02T08:23:06;101779.53;;;9.74;100.00
56400;BME280;42298;53.638;9.876;2024-03-02T08:25:31;101775.94;;;9.75;100.00
56400;BME280;42298;53.638;9.876;2024-03-02T08:27:57;101754.59;;;9.65;100.00
56400;BME280;42298;53.638;9.876;2024-03-02T08:30:23;101765.22;;;9.65;100.00
56400;BME280;42298;53.638;9.876;2024-03-02T08:32:48;101758.31;;;9.63;100.00
56400;BME280;42298;53.638;9.876;2024-03-02T08:35:13;101757.69;;;9.70;100.00
56400;BME280;42298;53.638;9.876;2024-03-02T08:37:40;101754.31;;;9.68;100.00
56400;BME280;42298;53.638;9.876;2024-03-02T08:40:07;101778.19;;;9.80;100.00
56400;BME280;42298;53.638;9.876;2024-03-02T08:42:33;101784.56;;;9.88;100.00
56400;BME280;42298;53.638;9.876;2024-03-02T08:44:58;101789.75;;;9.90;100.00
56400;BME280;42298;53.638;9.876;2024-03-02T08:47:26;101789.59;;;9.91;100.00
56400;BME280;42298;53.638;9.876;2024-03-02T08:49:52;101794.31;;;10.09;100.00
56400;BME280;42298;53.638;9.876;2024-03-02T08:52:17;101777.09;;;10.03;100.00
56400;BME280;42298;53.638;9.876;2024-03-02T08:54:43;101776.94;;;10.05;100.00
56400;BME280;42298;53.638;9.876;2024-03-02T08:57:14;101776.69;;;10.08;100.00
56400;BME280;42298;53.638;9.876;2024-03-02T08:59:40;101777.00;;;10.14;100.00
56400;BME280;42298;53.638;9.876;2024-03-02T09:02:11;101789.63;;;10.22;100.00
56400;BME280;42298;53.638;9.876;2024-03-02T09:04:41;101795.41;;;10.27;100.00
56400;BME280;42298;53.638;9.876;2024-03-02T09:07:09;101795.63;;;10.35;100.00
56400;BME280;42298;53.638;9.876;2024-03-02T09:09:34;101790.28;;;10.35;100.00
56400;BME280;42298;53.638;9.876;2024-03-02T09:12:00;101781.78;;;10.42;100.00
56400;BME280;42298;53.638;9.876;2024-03-02T09:14:35;101784.03;;;10.46;100.00
56400;BME280;42298;53.638;9.876;2024-03-02T09:17:03;101761.16;;;10.44;100.00
56400;BME280;42298;53.638;9.876;2024-03-02T09:19:39;101774.66;;;10.52;100.00
56400;BME280;42298;53.638;9.876;2024-03-02T09:22:13;101784.75;;;10.58;100.00
56400;BME280;42298;53.638;9.876;2024-03-02T09:24:50;101773.13;;;10.59;100.00
56400;BME280;42298;53.638;9.876;2024-03-02T09:27:15;101770.19;;;10.62;100.00
56400;BME280;42298;53.638;9.876;2024-03-02T09:29:40;101767.69;;;10.70;100.00
56400;BME280;42298;53.638;9.876;2024-03-02T09:32:15;101784.69;;;10.79;100.00
56400;BME280;42298;53.638;9.876;2024-03-02T09:34:41;101778.94;;;10.84;100.00
56400;BME280;42298;53.638;9.876;2024-03-02T09:37:09;101753.44;;;10.81;100.00
56400;BME280;42298;53.638;9.876;2024-03-02T09:39:34;101732.94;;;10.82;100.00
56400;BME280;42298;53.638;9.876;2024-03-02T09:42:05;101739.13;;;10.92;100.00
56400;BME280;42298;53.638;9.876;2024-03-02T09:44:37;101743.88;;;10.98;100.00
56400;BME280;42298;53.638;9.876;2024-03-02T09:47:06;101738.59;;;11.08;100.00
56400;BME280;42298;53.638;9.876;2024-03-02T09:49:31;101738.44;;;11.19;100.00
56400;BME280;42298;53.638;9.876;2024-03-02T09:51:57;101729.47;;;11.30;100.00
56400;BME280;42298;53.638;9.876;2024-03-02T09:54:26;101706.44;;;11.29;100.00
56400;BME280;42298;53.638;9.876;2024-03-02T09:56:51;101697.16;;;11.33;100.00
56400;BME280;42298;53.638;9.876;2024-03-02T09:59:16;101693.09;;;11.38;100.00
56400;BME280;42298;53.638;9.876;2024-03-02T10:02:01;101660.78;;;11.51;100.00
56400;BME280;42298;53.638;9.876;2024-03-02T10:04:27;101635.09;;;11.50;100.00
56400;BME280;42298;53.638;9.876;2024-03-02T10:09:43;101582.31;;;11.44;100.00
56400;BME280;42298;53.638;9.876;2024-03-02T10:12:14;101581.59;;;11.52;100.00
56400;BME280;42298;53.638;9.876;2024-03-02T10:14:41;101576.09;;;11.53;100.00
56400;BME280;42298;53.638;9.876;2024-03-02T10:17:11;101563.00;;;11.60;100.00
56400;BME280;42298;53.638;9.876;2024-03-02T10:19:41;101549.53;;;11.62;100.00
56400;BME280;42298;53.638;9.876;2024-03-02T10:22:09;101530.13;;;11.69;100.00
56400;BME280;42298;53.638;9.876;2024-03-02T10:24:42;101526.69;;;11.77;100.00
56400;BME280;42298;53.638;9.876;2024-03-02T10:27:22;101503.75;;;11.84;100.00
56400;BME280;42298;53.638;9.876;2024-03-02T10:29:48;101474.25;;;11.86;100.00
56400;BME280;42298;53.638;9.876;2024-03-02T10:32:14;101445.59;;;11.88;100.00
56400;BME280;42298;53.638;9.876;2024-03-02T10:34:41;101415.38;;;11.87;100.00
56400;BME280;42298;53.638;9.876;2024-03-02T10:37:07;101379.16;;;11.85;100.00
56400;BME280;42298;53.638;9.876;2024-03-02T10:39:34;101376.44;;;11.94;100.00
56400;BME280;42298;53.638;9.876;2024-03-02T10:42:02;101361.66;;;12.00;100.00
56400;BME280;42298;53.638;9.876;2024-03-02T10:44:28;101359.03;;;12.08;100.00
56400;BME280;42298;53.638;9.876;2024-03-02T10:46:55;101360.25;;;12.14;100.00
56400;BME280;42298;53.638;9.876;2024-03-02T10:49:22;101344.59;;;12.19;100.00
56400;BME280;42298;53.638;9.876;2024-03-02T10:51:49;101335.81;;;12.27;100.00
56400;BME280;42298;53.638;9.876;2024-03-02T10:54:14;101330.13;;;12.30;100.00
56400;BME280;42298;53.638;9.876;2024-03-02T10:56:41;101307.41;;;12.26;100.00
56400;BME280;42298;53.638;9.876;2024-03-02T10:59:26;101293.06;;;12.27;100.00
56400;BME280;42298;53.638;9.876;2024-03-02T11:02:01;101306.31;;;12.36;100.00
56400;BME280;42298;53.638;9.876;2024-03-02T11:04:27;101315.56;;;12.50;100.00
56400;BME280;42298;53.638;9.876;2024-03-02T11:07:20;101315.75;;;12.57;100.00
56400;BME280;42298;53.638;9.876;2024-03-02T11:10:05;101307.78;;;12.65;100.00
56400;BME280;42298;53.638;9.876;2024-03-02T11:12:38;101282.03;;;12.64;100.00
56400;BME280;42298;53.638;9.876;2024-03-02T11:15:10;101304.09;;;12.66;100.00
56400;BME280;42298;53.638;9.876;2024-03-02T11:17:39;101293.59;;;12.65;100.00
56400;BME280;42298;53.638;9.876;2024-03-02T11:20:07;101308.66;;;12.74;100.00
56400;BME280;42298;53.638;9.876;2024-03-02T11:22:35;101318.88;;;12.78;100.00
56400;BME280;42298;53.638;9.876;2024-03-02T11:25:01;101323.91;;;12.90;100.00
56400;BME280;42298;53.638;9.876;2024-03-02T11:33:03;101351.84;;;12.95;100.00
56400;BME280;42298;53.638;9.876;2024-03-02T11:35:40;101350.69;;;12.98;100.00
56400;BME280;42298;53.638;9.876;2024-03-02T11:38:09;101343.84;;;13.03;100.00
56400;BME280;42298;53.638;9.876;2024-03-02T11:40:35;101339.34;;;13.04;100.00
56400;BME280;42298;53.638;9.876;2024-03-02T11:43:00;101343.19;;;13.10;100.00
56400;BME280;42298;53.638;9.876;2024-03-02T11:45:26;101331.81;;;13.08;100.00
56400;BME280;42298;53.638;9.876;2024-03-02T11:47:56;101324.97;;;13.05;100.00
56400;BME280;42298;53.638;9.876;2024-03-02T11:53:08;101335.69;;;13.21;100.00
56400;BME280;42298;53.638;9.876;2024-03-02T11:55:35;101342.75;;;13.22;100.00
56400;BME280;42298;53.638;9.876;2024-03-02T11:58:04;101336.38;;;13.23;100.00
56400;BME280;42298;53.638;9.876;2024-03-02T12:00:29;101344.81;;;13.29;100.00
56400;BME280;42298;53.638;9.876;2024-03-02T12:03:02;101324.34;;;13.28;100.00
56400;BME280;42298;53.638;9.876;2024-03-02T12:05:29;101338.44;;;13.30;100.00
56400;BME280;42298;53.638;9.876;2024-03-02T12:07:59;101323.41;;;13.29;100.00
56400;BME280;42298;53.638;9.876;2024-03-02T12:10:25;101344.31;;;13.33;100.00
56400;BME280;42298;53.638;9.876;2024-03-02T12:13:03;101362.00;;;13.34;100.00
56400;BME280;42298;53.638;9.876;2024-03-02T12:15:30;101306.34;;;13.30;100.00
56400;BME280;42298;53.638;9.876;2024-03-02T12:17:58;101331.59;;;13.35;100.00
56400;BME280;42298;53.638;9.876;2024-03-02T12:20:24;101320.91;;;13.35;100.00
56400;BME280;42298;53.638;9.876;2024-03-02T12:22:53;101325.09;;;13.46;100.00
56400;BME280;42298;53.638;9.876;2024-03-02T12:25:23;101306.00;;;13.33;100.00
56400;BME280;42298;53.638;9.876;2024-03-02T12:27:50;101301.16;;;13.36;100.00
56400;BME280;42298;53.638;9.876;2024-03-02T12:30:19;101302.00;;;13.37;100.00
56400;BME280;42298;53.638;9.876;2024-03-02T12:32:46;101289.78;;;13.34;100.00
56400;BME280;42298;53.638;9.876;2024-03-02T12:35:12;101286.28;;;13.34;100.00
56400;BME280;42298;53.638;9.876;2024-03-02T12:37:47;101270.84;;;13.28;100.00
56400;BME280;42298;53.638;9.876;2024-03-02T12:40:14;101263.81;;;13.18;100.00
56400;BME280;42298;53.638;9.876;2024-03-02T12:42:40;101279.91;;;13.27;100.00
56400;BME280;42298;53.638;9.876;2024-03-02T12:45:07;101280.25;;;13.32;100.00
56400;BME280;42298;53.638;9.876;2024-03-02T12:47:36;101280.78;;;13.35;100.00
56400;BME280;42298;53.638;9.876;2024-03-02T12:50:03;101279.25;;;13.41;100.00
56400;BME280;42298;53.638;9.876;2024-03-02T12:52:30;101284.78;;;13.48;100.00
56400;BME280;42298;53.638;9.876;2024-03-02T12:54:55;101268.22;;;13.52;100.00
56400;BME280;42298;53.638;9.876;2024-03-02T12:57:28;101261.53;;;13.64;100.00
56400;BME280;42298;53.638;9.876;2024-03-02T12:59:58;101243.31;;;13.60;100.00